Time;durP1;ratioP1;P1;durP2;ratioP2;P2;SDS_P1;SDS_P2;PMS_P1;PMS_P2;Temp;Humidity;BMP_temperature;BMP_pressure;BME280_temperature;BME280_humidity;BME280_pressure;Samples;Min_cycle;Max_cycle;Signal;HPM_P1;HPM_P2
2022/04/28 00:01:45;;;;;;;22.30;3.70;;;19.50;74.50;;;;;;4988911;28;20026;-76
2022/04/28 00:04:11;;;;;;;12.93;3.20;;;19.50;75.20;;;;;;5007379;28;21104;-75
2022/04/28 00:06:38;;;;;;;19.00;3.78;;;19.50;74.90;;;;;;5007987;28;20041;-76
2022/04/28 00:09:06;;;;;;;18.38;3.60;;;19.50;75.10;;;;;;5007135;28;20026;-77
2022/04/28 00:12:12;;;;;;;10.70;2.92;;;19.50;75.20;;;;;;5008341;28;20030;-77
2022/04/28 00:14:58;;;;;;;;;;;19.50;75.10;;;;;;5007387;28;20034;-75
2022/04/28 00:17:25;;;;;;;10.93;3.55;;;19.50;74.80;;;;;;5006293;28;20408;-74
2022/04/28 00:20:31;;;;;;;7.03;2.80;;;19.50;74.70;;;;;;5007114;28;20052;-75
2022/04/28 00:23:37;;;;;;;17.02;3.28;;;19.50;74.70;;;;;;5005304;28;20028;-76
2022/04/28 00:26:03;;;;;;;10.82;1.92;;;19.40;74.80;;;;;;5006846;28;20076;-76
2022/04/28 00:28:30;;;;;;;10.88;2.70;;;19.40;74.80;;;;;;5007624;28;20026;-75
2022/04/28 00:31:33;;;;;;;9.27;2.00;;;19.40;74.90;;;;;;4989262;28;20029;-73
2022/04/28 00:34:27;;;;;;;17.20;2.67;;;19.40;75.00;;;;;;4988661;28;20068;-76
2022/04/28 00:37:34;;;;;;;10.50;2.00;;;19.40;75.10;;;;;;4989165;28;20034;-73
2022/04/28 00:40:09;;;;;;;7.93;2.10;;;19.40;75.20;;;;;;4987426;28;20574;-75
2022/04/28 00:42:35;;;;;;;;;;;19.30;75.20;;;;;;4991377;28;20072;-71
2022/04/28 00:45:41;;;;;;;7.85;2.53;;;19.30;75.30;;;;;;5006624;28;19945;-67
2022/04/28 00:52:11;;;;;;;17.08;2.97;;;19.30;75.50;;;;;;5006817;28;20095;-72
2022/04/28 00:55:17;;;;;;;14.48;2.33;;;19.30;75.70;;;;;;5006834;28;20525;-75
2022/04/28 00:58:23;;;;;;;21.27;3.08;;;19.30;75.90;;;;;;5006690;28;20030;-77
2022/04/28 01:00:53;;;;;;;8.60;3.22;;;19.30;76.10;;;;;;5006104;28;20018;-77
2022/04/28 01:03:59;;;;;;;9.30;2.33;;;19.30;76.40;;;;;;5006744;28;20022;-75
2022/04/28 01:06:26;;;;;;;6.55;2.17;;;19.30;76.50;;;;;;5006298;28;20065;-76
2022/04/28 01:08:52;;;;;;;8.23;2.08;;;19.30;76.50;;;;;;5006523;28;20033;-75
2022/04/28 01:11:58;;;;;;;13.23;2.60;;;19.30;76.70;;;;;;5007049;28;20022;-75
2022/04/28 01:15:05;;;;;;;13.80;3.03;;;19.30;76.70;;;;;;5004807;28;20042;-73
2022/04/28 01:17:31;;;;;;;6.38;2.20;;;19.30;76.70;;;;;;5007249;28;20146;-74
2022/04/28 01:20:37;;;;;;;19.60;4.07;;;19.20;76.80;;;;;;5006616;28;20026;-76
2022/04/28 01:23:05;;;;;;;13.23;3.30;;;19.30;76.90;;;;;;5005763;28;20034;-75
2022/04/28 01:26:11;;;;;;;16.48;2.50;;;19.20;77.00;;;;;;5006763;28;20026;-75
2022/04/28 01:28:37;;;;;;;12.02;3.55;;;19.20;76.90;;;;;;5006078;28;20040;-76
2022/04/28 01:31:05;;;;;;;13.88;2.33;;;19.20;77.00;;;;;;5006183;28;20080;-75
2022/04/28 01:33:32;;;;;;;9.80;2.20;;;19.20;77.10;;;;;;5006944;28;20505;-77
2022/04/28 01:36:16;;;;;;;5.93;1.80;;;19.20;77.20;;;;;;5005626;28;20465;-75
2022/04/28 01:38:42;;;;;;;12.02;3.42;;;19.20;77.20;;;;;;4989819;28;20048;-71
2022/04/28 01:41:09;;;;;;;11.15;2.70;;;19.20;77.30;;;;;;5005699;28;20018;-72
2022/04/28 01:44:15;;;;;;;8.98;2.47;;;19.10;77.20;;;;;;5006873;28;20029;-74
2022/04/28 01:46:42;;;;;;;7.20;1.63;;;19.10;77.20;;;;;;5005144;28;20465;-70
2022/04/28 01:49:48;;;;;;;8.10;1.80;;;19.20;77.40;;;;;;4988034;28;20034;-76
2022/04/28 01:56:18;;;;;;;13.43;1.95;;;19.10;77.50;;;;;;5005462;28;20052;-77
2022/04/28 01:58:44;;;;;;;9.85;2.17;;;19.10;77.50;;;;;;5005577;28;20061;-75
2022/04/28 02:01:50;;;;;;;12.13;2.42;;;19.10;77.50;;;;;;5005332;28;20033;-70
2022/04/28 02:04:34;;;;;;;7.60;1.88;;;19.10;77.60;;;;;;5006718;28;20416;-75
2022/04/28 02:07:00;;;;;;;6.30;2.78;;;19.10;77.70;;;;;;4986300;28;20497;-72
2022/04/28 02:10:07;;;;;;;12.52;2.63;;;19.10;77.70;;;;;;5006599;28;20548;-74
2022/04/28 02:12:37;;;;;;;16.13;2.20;;;19.10;77.70;;;;;;5008769;28;20072;-76
2022/04/28 02:15:04;;;;;;;14.20;3.65;;;19.10;78.00;;;;;;5009556;28;20401;-76
2022/04/28 02:18:10;;;;;;;14.02;2.92;;;19.10;78.10;;;;;;5010044;28;20036;-71
2022/04/28 02:21:00;;;;;;;9.20;3.08;;;19.10;78.20;;;;;;5009239;28;20077;-73
2022/04/28 02:24:07;;;;;;;7.28;2.33;;;19.10;78.40;;;;;;4991729;28;20026;-73
2022/04/28 02:27:13;;;;;;;14.43;2.90;;;19.00;78.30;;;;;;5009042;28;20022;-67
2022/04/28 02:30:19;;;;;;;17.05;2.97;;;19.00;78.20;;;;;;5010261;28;20028;-73
2022/04/28 02:35:34;;;;;;;12.07;2.13;;;19.00;78.10;;;;;;5009673;28;20582;-74
2022/04/28 02:38:40;;;;;;;9.13;2.00;;;19.00;78.00;;;;;;4991962;28;20037;-76
2022/04/28 02:41:07;;;;;;;14.68;2.72;;;19.00;77.90;;;;;;5008833;28;20014;-77
2022/04/28 02:43:34;;;;;;;14.70;3.30;;;18.90;77.90;;;;;;5009468;28;20026;-77
2022/04/28 02:46:00;;;;;;;14.20;2.28;;;19.00;78.30;;;;;;5008818;28;20436;-75
2022/04/28 02:49:06;;;;;;;9.48;1.80;;;19.00;78.50;;;;;;5009589;28;20156;-74
2022/04/28 02:51:33;;;;;;;9.00;2.13;;;18.90;78.20;;;;;;5008364;28;20026;-77
2022/04/28 02:53:59;;;;;;;9.30;2.70;;;18.90;78.20;;;;;;5009022;28;20049;-74
2022/04/28 02:57:05;;;;;;;10.25;1.92;;;18.90;78.20;;;;;;5009222;28;20469;-64
2022/04/28 02:59:32;;;;;;;5.07;1.67;;;18.90;78.10;;;;;;5008980;28;20018;-76
2022/04/28 03:02:38;;;;;;;12.57;2.13;;;18.90;78.10;;;;;;5008513;28;20026;-76
2022/04/28 03:11:20;;;;;;;9.93;2.25;;;18.80;78.30;;;;;;4991820;28;20181;-73
2022/04/28 03:13:46;;;;;;;26.15;3.00;;;18.90;78.50;;;;;;5008834;28;20042;-75
2022/04/28 03:16:52;;;;;;;6.38;2.20;;;18.80;78.50;;;;;;5008157;28;20025;-72
2022/04/28 03:19:19;;;;;;;18.98;3.63;;;18.80;78.60;;;;;;5008220;28;20033;-73
2022/04/28 03:21:45;;;;;;;9.32;2.50;;;18.80;78.90;;;;;;5008962;28;20045;-72
2022/04/28 03:24:51;;;;;;;8.20;2.83;;;18.80;79.00;;;;;;5006893;28;20477;-72
2022/04/28 03:27:17;;;;;;;9.93;2.80;;;18.80;79.00;;;;;;5009042;28;20053;-72
2022/04/28 03:29:44;;;;;;;6.32;2.17;;;18.80;79.10;;;;;;5007947;28;20018;-71
2022/04/28 03:32:11;;;;;;;10.40;2.30;;;18.80;79.10;;;;;;5008074;28;20021;-73
2022/04/28 03:34:37;;;;;;;7.30;2.13;;;18.80;79.10;;;;;;5008518;28;20026;-72
2022/04/28 03:37:47;;;;;;;8.88;2.92;;;18.80;79.00;;;;;;5007193;28;20018;-72
2022/04/28 03:40:14;;;;;;;9.73;2.33;;;18.80;79.00;;;;;;5007357;28;20025;-72
2022/04/28 03:43:20;;;;;;;15.68;3.03;;;18.80;78.90;;;;;;5006152;28;20022;-72
2022/04/28 03:46:27;;;;;;;8.82;3.30;;;18.80;78.80;;;;;;5005478;28;20080;-73
2022/04/28 03:48:53;;;;;;;10.95;3.22;;;18.70;79.40;;;;;;5008161;28;20022;-72
2022/04/28 03:51:19;;;;;;;17.70;3.30;;;18.80;78.70;;;;;;5006701;28;20105;-72
2022/04/28 03:53:52;;;;;;;16.27;5.80;;;18.70;78.60;;;;;;5007895;28;20124;-75
2022/04/28 03:56:18;;;;;;;50.90;26.63;;;18.80;78.80;;;;;;5006036;28;20062;-68
2022/04/28 03:58:45;;;;;;;31.25;16.63;;;18.70;78.60;;;;;;5007098;28;20097;-70
2022/04/28 04:01:12;;;;;;;20.02;8.68;;;18.70;78.30;;;;;;5007575;28;20466;-68
2022/04/28 04:03:39;;;;;;;13.98;5.32;;;18.70;78.10;;;;;;5006198;28;20044;-72
2022/04/28 04:06:05;;;;;;;12.02;3.70;;;18.70;77.90;;;;;;5007208;28;20033;-72
2022/04/28 04:08:31;;;;;;;12.45;3.72;;;18.70;77.90;;;;;;5006805;28;20493;-72
2022/04/28 04:10:58;;;;;;;14.75;3.10;;;18.60;76.90;;;;;;5006703;28;20018;-73
2022/04/28 04:13:25;;;;;;;18.80;3.72;;;18.50;77.70;;;;;;5007443;28;20061;-68
2022/04/28 04:15:51;;;;;;;14.05;3.25;;;18.50;78.40;;;;;;5007071;28;20025;-71
2022/04/28 04:18:18;;;;;;;13.50;3.28;;;18.50;78.50;;;;;;5008045;28;20098;-74
2022/04/28 04:20:44;;;;;;;10.10;3.10;;;18.40;78.30;;;;;;5006445;28;20081;-75
2022/04/28 04:23:11;;;;;;;8.73;3.40;;;18.50;78.30;;;;;;5007764;28;20022;-71
2022/04/28 04:25:37;;;;;;;45.80;33.38;;;18.50;78.80;;;;;;5006545;28;20052;-75
2022/04/28 04:28:04;;;;;;;42.60;25.92;;;18.50;77.90;;;;;;5007239;28;20022;-69
2022/04/28 04:33:15;;;;;;;18.13;8.48;;;18.50;77.60;;;;;;5006783;28;20026;-69
2022/04/28 04:35:42;;;;;;;12.27;4.68;;;18.50;77.40;;;;;;5006356;28;20149;-78
2022/04/28 04:38:08;;;;;;;12.30;4.53;;;18.50;77.20;;;;;;4989054;28;20026;-76
2022/04/28 04:40:35;;;;;;;18.63;4.45;;;18.40;76.80;;;;;;5007558;28;20025;-67
2022/04/28 04:43:02;;;;;;;13.02;3.60;;;18.50;76.80;;;;;;5005535;28;20018;-76
2022/04/28 04:45:29;;;;;;;10.45;3.38;;;18.50;76.70;;;;;;5007658;28;20033;-73
2022/04/28 04:47:58;;;;;;;16.27;3.42;;;18.40;76.40;;;;;;5006909;28;20022;-73
2022/04/28 04:50:25;;;;;;;20.13;10.43;;;18.40;76.10;;;;;;5006693;28;20404;-75
2022/04/28 04:52:51;;;;;;;16.30;7.75;;;18.40;75.80;;;;;;5007470;28;20022;-68
2022/04/28 04:55:18;;;;;;;19.10;5.68;;;18.40;75.90;;;;;;5004553;28;20061;-73
2022/04/28 04:57:44;;;;;;;14.27;4.15;;;18.30;75.80;;;;;;5006998;28;20105;-71
2022/04/28 05:00:11;;;;;;;20.88;5.60;;;18.30;75.70;;;;;;5006519;28;20029;-69
2022/04/28 05:02:38;;;;;;;24.90;4.32;;;18.30;75.70;;;;;;5005099;28;20029;-72
2022/04/28 05:05:05;;;;;;;19.05;4.30;;;18.30;75.70;;;;;;5006707;28;20025;-71
2022/04/28 05:07:32;;;;;;;12.05;3.40;;;18.30;75.80;;;;;;4988683;28;20492;-70
2022/04/28 05:09:58;;;;;;;16.23;3.53;;;18.30;75.70;;;;;;5007107;28;20084;-66
2022/04/28 05:12:25;;;;;;;7.30;2.97;;;18.30;75.60;;;;;;5006199;28;20018;-72
2022/04/28 05:14:51;;;;;;;11.65;2.85;;;18.30;75.90;;;;;;5006342;28;20034;-66
2022/04/28 05:17:18;;;;;;;8.20;2.80;;;18.30;76.00;;;;;;5005892;28;20022;-69
2022/04/28 05:19:44;;;;;;;10.55;3.35;;;18.30;76.20;;;;;;5006916;28;20060;-73
2022/04/28 05:22:11;;;;;;;10.57;2.55;;;18.30;76.40;;;;;;5006091;28;20107;-68
2022/04/28 05:24:37;;;;;;;12.43;4.05;;;18.30;76.50;;;;;;5006788;28;20052;-71
2022/04/28 05:27:04;;;;;;;8.05;2.63;;;18.30;76.50;;;;;;5007056;28;20028;-67
2022/04/28 05:29:30;;;;;;;9.55;3.42;;;18.20;76.60;;;;;;5006667;28;20022;-71
2022/04/28 05:31:57;;;;;;;12.45;3.42;;;18.20;76.50;;;;;;5005785;28;20393;-75
2022/04/28 05:34:23;;;;;;;12.90;3.92;;;18.30;76.70;;;;;;5005796;28;20646;-66
2022/04/28 05:36:50;;;;;;;11.73;4.13;;;18.20;76.90;;;;;;5006938;28;21136;-68
2022/04/28 05:39:17;;;;;;;9.63;3.72;;;18.20;77.20;;;;;;5006099;28;20022;-69
2022/04/28 05:41:44;;;;;;;10.60;3.20;;;18.20;77.40;;;;;;5006879;28;20045;-73
2022/04/28 05:46:56;;;;;;;5.60;2.80;;;18.20;77.60;;;;;;5007930;28;20103;-69
2022/04/28 05:49:22;;;;;;;14.40;3.67;;;18.20;77.60;;;;;;5011234;28;20622;-66
2022/04/28 05:51:50;;;;;;;19.20;4.53;;;18.20;77.60;;;;;;5010233;28;20036;-67
2022/04/28 05:54:17;;;;;;;8.65;2.95;;;18.20;77.80;;;;;;5010342;28;20374;-63
2022/04/28 05:56:43;;;;;;;11.63;3.22;;;18.20;78.30;;;;;;5009504;28;20018;-66
2022/04/28 05:59:10;;;;;;;11.05;3.30;;;18.20;78.60;;;;;;5010788;28;20562;-63
2022/04/28 06:01:37;;;;;;;7.63;3.08;;;18.20;78.90;;;;;;5010057;28;20029;-65
2022/04/28 06:04:07;;;;;;;6.65;2.38;;;18.20;79.10;;;;;;5009808;28;20025;-63
2022/04/28 06:06:33;;;;;;;9.80;3.83;;;18.30;79.20;;;;;;5010877;28;20446;-68
2022/04/28 06:09:00;;;;;;;8.30;2.75;;;18.30;79.50;;;;;;5008491;28;20104;-73
2022/04/28 06:11:27;;;;;;;6.18;2.47;;;18.30;79.60;;;;;;5010856;28;20051;-71
2022/04/28 06:13:53;;;;;;;11.07;3.08;;;18.30;79.70;;;;;;5008879;28;20477;-67
2022/04/28 06:16:19;;;;;;;12.35;2.90;;;18.30;79.80;;;;;;5009746;28;20026;-72
2022/04/28 06:18:46;;;;;;;11.10;3.30;;;18.30;79.90;;;;;;5009426;28;20069;-69
2022/04/28 06:21:12;;;;;;;7.22;3.20;;;18.40;80.00;;;;;;5009221;28;20129;-70
2022/04/28 06:23:39;;;;;;;10.25;4.43;;;18.30;80.20;;;;;;5010057;28;20400;-71
2022/04/28 06:26:06;;;;;;;6.53;3.05;;;18.40;80.30;;;;;;4991272;28;20014;-69
2022/04/28 06:28:32;;;;;;;11.68;3.88;;;18.40;80.50;;;;;;5010359;28;20033;-70
2022/04/28 06:30:59;;;;;;;10.98;3.67;;;18.40;80.70;;;;;;4991789;28;20102;-71
2022/04/28 06:33:25;;;;;;;9.23;3.08;;;18.40;80.70;;;;;;5008942;28;20025;-63
2022/04/28 06:35:52;;;;;;;9.05;2.95;;;18.40;80.80;;;;;;5008993;28;20038;-67
2022/04/28 06:38:18;;;;;;;8.73;2.55;;;18.40;81.00;;;;;;4992548;28;20053;-70
2022/04/28 06:40:45;;;;;;;9.93;3.22;;;18.40;81.10;;;;;;5009296;28;20026;-67
2022/04/28 06:43:11;;;;;;;15.70;3.47;;;18.40;81.10;;;;;;5009217;28;20036;-74
2022/04/28 06:45:37;;;;;;;11.52;3.45;;;18.40;81.20;;;;;;5010197;28;20010;-70
2022/04/28 06:48:04;;;;;;;7.88;2.45;;;18.40;81.30;;;;;;5007424;28;20042;-75
2022/04/28 06:50:31;;;;;;;5.30;2.50;;;18.40;81.40;;;;;;4991465;28;20397;-74
2022/04/28 06:52:57;;;;;;;7.75;2.45;;;18.50;81.50;;;;;;5008332;28;20106;-75
2022/04/28 06:55:24;;;;;;;12.05;2.92;;;18.50;81.50;;;;;;5009419;28;20041;-75
2022/04/28 06:57:50;;;;;;;13.80;2.55;;;18.50;81.40;;;;;;5009146;28;20044;-73
2022/04/28 07:00:17;;;;;;;7.00;2.30;;;18.50;81.40;;;;;;5008999;28;20113;-75
2022/04/28 07:02:43;;;;;;;16.45;3.70;;;18.50;81.30;;;;;;4991607;28;20473;-76
2022/04/28 07:05:10;;;;;;;15.20;3.40;;;18.50;81.00;;;;;;5008887;28;20049;-76
2022/04/28 07:07:36;;;;;;;7.25;2.08;;;18.60;80.80;;;;;;5009801;28;20025;-76
2022/04/28 07:10:03;;;;;;;10.27;2.63;;;18.60;80.60;;;;;;5007809;28;20446;-73
2022/04/28 07:12:29;;;;;;;5.47;2.30;;;18.60;80.40;;;;;;5009471;28;20105;-73
2022/04/28 07:14:56;;;;;;;7.68;3.92;;;18.60;80.10;;;;;;5006537;28;20573;-73
2022/04/28 07:17:22;;;;;;;6.80;2.20;;;18.60;79.70;;;;;;5008740;28;20550;-71
2022/04/28 07:19:49;;;;;;;7.00;2.50;;;18.60;79.40;;;;;;5008814;28;20021;-75
2022/04/28 07:22:16;;;;;;;12.48;2.67;;;18.60;79.20;;;;;;5008781;28;20025;-75
2022/04/28 07:24:42;;;;;;;8.73;2.33;;;18.70;78.90;;;;;;5008787;28;20102;-76
2022/04/28 07:27:09;;;;;;;10.95;2.83;;;18.70;78.80;;;;;;5005803;28;20026;-74
2022/04/28 07:29:35;;;;;;;9.18;2.55;;;18.70;78.70;;;;;;5008990;28;20018;-75
2022/04/28 07:32:02;;;;;;;14.82;2.85;;;18.70;78.90;;;;;;5008299;28;20014;-73
2022/04/28 07:34:29;;;;;;;5.97;1.75;;;18.80;78.70;;;;;;5008930;28;20359;-71
2022/04/28 07:36:55;;;;;;;7.38;1.77;;;18.80;78.60;;;;;;5008151;28;20029;-67
2022/04/28 07:39:22;;;;;;;7.22;2.25;;;18.80;78.60;;;;;;4990402;28;20041;-73
2022/04/28 07:41:48;;;;;;;9.85;2.53;;;18.80;78.50;;;;;;5009492;28;20021;-68
2022/04/28 07:44:15;;;;;;;7.72;2.42;;;18.90;78.50;;;;;;5007177;28;20018;-74
2022/04/28 07:46:41;;;;;;;7.40;2.13;;;18.90;78.30;;;;;;5008566;28;20021;-75
2022/04/28 07:49:08;;;;;;;7.97;2.63;;;18.90;78.10;;;;;;5007574;28;20064;-67
2022/04/28 07:51:35;;;;;;;8.65;2.10;;;18.90;77.90;;;;;;5008835;28;20014;-73
2022/04/28 07:54:04;;;;;;;13.63;2.42;;;19.00;77.70;;;;;;5007516;28;20417;-71
2022/04/28 07:56:30;;;;;;;8.90;2.33;;;19.00;77.30;;;;;;5008055;28;20029;-69
2022/04/28 07:58:57;;;;;;;9.30;2.40;;;19.00;77.10;;;;;;5008648;28;20068;-72
2022/04/28 08:01:24;;;;;;;9.80;2.30;;;19.00;76.90;;;;;;5007731;28;20018;-70
2022/04/28 08:03:51;;;;;;;10.20;3.25;;;19.10;76.80;;;;;;5008503;28;20049;-74
2022/04/28 08:06:18;;;;;;;12.13;2.50;;;19.10;76.50;;;;;;5007120;28;20449;-70
2022/04/28 08:08:44;;;;;;;18.58;2.67;;;19.10;76.20;;;;;;5008136;28;20024;-66
2022/04/28 08:11:11;;;;;;;9.20;2.42;;;19.20;76.00;;;;;;5007040;28;20029;-74
2022/04/28 08:13:37;;;;;;;13.80;3.80;;;19.20;75.90;;;;;;4990105;28;20076;-72
2022/04/28 08:16:04;;;;;;;9.07;3.58;;;19.20;75.80;;;;;;5008001;28;20424;-70
2022/04/28 08:18:31;;;;;;;12.90;3.05;;;19.20;75.70;;;;;;5008100;28;21621;-66
2022/04/28 08:20:58;;;;;;;14.52;3.60;;;19.30;75.50;;;;;;5007756;28;20092;-69
2022/04/28 08:23:25;;;;;;;9.18;2.33;;;19.30;75.20;;;;;;5005579;28;20026;-69
2022/04/28 08:25:52;;;;;;;11.43;2.70;;;19.30;74.80;;;;;;5008144;28;20112;-68
2022/04/28 08:28:18;;;;;;;14.35;3.25;;;19.40;74.20;;;;;;5006948;28;20733;-70
2022/04/28 08:30:45;;;;;;;13.05;3.30;;;19.40;74.00;;;;;;5008161;28;20069;-70
2022/04/28 08:33:11;;;;;;;13.35;4.93;;;19.40;73.80;;;;;;5007164;28;20045;-67
2022/04/28 08:35:38;;;;;;;13.15;2.60;;;19.50;73.90;;;;;;5006893;28;20034;-70
2022/04/28 08:38:04;;;;;;;9.75;2.45;;;19.50;73.60;;;;;;5008155;28;20030;-70
2022/04/28 08:40:33;;;;;;;9.63;2.30;;;19.50;72.90;;;;;;5006862;28;20065;-73
2022/04/28 08:43:04;;;;;;;16.10;2.95;;;19.50;72.60;;;;;;5007651;28;20024;-66
2022/04/28 08:45:37;;;;;;;19.08;3.15;;;19.60;72.10;;;;;;5006221;28;20013;-67
2022/04/28 08:48:06;;;;;;;9.35;2.78;;;19.60;71.70;;;;;;5007673;28;20026;-71
2022/04/28 08:50:32;;;;;;;10.95;2.38;;;19.70;71.20;;;;;;5006836;28;20018;-72
2022/04/28 08:53:01;;;;;;;12.13;2.75;;;19.70;70.70;;;;;;5007291;28;20022;-69
2022/04/28 08:55:27;;;;;;;12.38;3.30;;;19.70;70.40;;;;;;5007405;28;20037;-69
2022/04/28 08:57:54;;;;;;;13.10;3.70;;;19.70;70.20;;;;;;5006068;28;20022;-68
2022/04/28 09:00:20;;;;;;;14.07;3.42;;;19.80;70.10;;;;;;5007514;28;20045;-72
2022/04/28 09:02:47;;;;;;;10.05;2.70;;;19.80;69.80;;;;;;5005499;28;20022;-68
2022/04/28 09:05:19;;;;;;;12.95;2.97;;;19.80;69.50;;;;;;5007271;28;20018;-70
2022/04/28 09:07:47;;;;;;;11.52;3.10;;;19.90;69.40;;;;;;5007095;28;20054;-70
2022/04/28 09:10:32;;;;;;;12.10;2.58;;;19.90;69.10;;;;;;5007296;28;20034;-72
2022/04/28 09:15:56;;;;;;;9.38;2.65;;;20.00;69.00;;;;;;5005914;28;20068;-66
2022/04/28 09:18:23;;;;;;;8.27;2.20;;;20.00;68.80;;;;;;5007115;28;20015;-71
2022/04/28 09:20:51;;;;;;;14.90;3.60;;;20.00;68.50;;;;;;5006883;28;20539;-68
2022/04/28 09:23:18;;;;;;;13.02;2.83;;;20.10;68.40;;;;;;5010487;28;20498;-74
2022/04/28 09:25:45;;;;;;;9.77;2.50;;;20.10;68.50;;;;;;5011194;28;20053;-70
2022/04/28 09:28:13;;;;;;;14.38;2.67;;;20.20;68.60;;;;;;5010668;28;20117;-68
2022/04/28 09:30:47;;;;;;;9.95;3.65;;;20.20;68.50;;;;;;5011223;28;20115;-73
2022/04/28 09:33:15;;;;;;;9.25;2.03;;;20.30;68.50;;;;;;5009873;28;20716;-71
2022/04/28 09:35:47;;;;;;;12.70;2.75;;;20.30;68.40;;;;;;5011058;28;20044;-71
2022/04/28 09:38:14;;;;;;;12.20;2.50;;;20.30;68.10;;;;;;5010395;28;20025;-71
2022/04/28 09:43:28;;;;;;;6.30;3.28;;;20.40;68.00;;;;;;5010839;28;20532;-66
2022/04/28 09:45:57;;;;;;;8.85;1.92;;;20.50;68.00;;;;;;5010311;28;20026;-66
2022/04/28 09:48:27;;;;;;;10.48;2.53;;;20.50;67.70;;;;;;5009301;28;20389;-72
2022/04/28 09:50:59;;;;;;;9.93;2.10;;;20.50;67.60;;;;;;5009331;28;20060;-65
2022/04/28 09:53:28;;;;;;;7.28;2.53;;;20.60;68.40;;;;;;5009777;28;20025;-71
2022/04/28 09:55:56;;;;;;;9.60;2.00;;;20.60;67.50;;;;;;5010896;28;20407;-68
2022/04/28 09:58:26;;;;;;;14.13;3.67;;;20.70;67.40;;;;;;5009520;28;20056;-71
2022/04/28 10:01:00;;;;;;;9.75;2.67;;;20.70;67.60;;;;;;5010696;28;20041;-69
2022/04/28 10:03:29;;;;;;;8.35;2.78;;;20.70;68.00;;;;;;5009612;28;20056;-71
2022/04/28 10:05:59;;;;;;;9.77;2.85;;;20.80;68.10;;;;;;5010765;28;20416;-66
2022/04/28 10:08:26;;;;;;;17.08;2.25;;;20.90;67.90;;;;;;5009971;28;20026;-72
2022/04/28 10:10:56;;;;;;;9.20;1.98;;;20.90;67.60;;;;;;5009823;28;20018;-69
2022/04/28 10:13:23;;;;;;;11.40;2.75;;;21.00;67.40;;;;;;5010663;28;20025;-71
2022/04/28 10:15:56;;;;;;;8.95;2.10;;;21.00;67.00;;;;;;5008606;28;20033;-72
2022/04/28 10:18:33;;;;;;;7.07;2.38;;;21.00;66.40;;;;;;5010466;28;20041;-68
2022/04/28 10:21:03;;;;;;;6.90;2.28;;;21.10;66.30;;;;;;5008109;28;21064;-69
2022/04/28 10:35:07;;;;;;;13.43;3.20;;;21.30;64.90;;;;;;5009778;28;20049;-73
2022/04/28 10:37:36;;;;;;;5.95;2.20;;;21.30;64.90;;;;;;5008592;28;20493;-67
2022/04/28 10:40:04;;;;;;;9.85;2.30;;;21.40;64.90;;;;;;5009912;28;20017;-72
2022/04/28 10:42:33;;;;;;;8.90;2.33;;;21.40;64.70;;;;;;5008266;28;20492;-71
2022/04/28 10:45:04;;;;;;;10.68;2.63;;;21.50;64.80;;;;;;5009908;28;20026;-68
2022/04/28 10:47:35;;;;;;;7.20;1.67;;;21.50;64.80;;;;;;5008779;28;20010;-69
2022/04/28 10:50:03;;;;;;;6.63;2.35;;;21.60;64.90;;;;;;5007723;28;20022;-71
2022/04/28 10:52:29;;;;;;;8.13;2.75;;;21.70;64.80;;;;;;5009569;28;20021;-70
2022/04/28 10:55:03;;;;;;;8.77;1.85;;;21.70;64.70;;;;;;5008624;28;20030;-71
2022/04/28 10:57:37;;;;;;;6.18;2.22;;;21.80;64.50;;;;;;5009071;28;20470;-69
2022/04/28 11:00:05;;;;;;;6.55;1.85;;;21.80;64.10;;;;;;5007823;28;20018;-69
2022/04/28 11:02:36;;;;;;;5.90;1.98;;;21.90;63.80;;;;;;5009572;28;20097;-70
2022/04/28 11:05:30;;;;;;;11.07;2.95;;;21.90;63.30;;;;;;5007119;28;20117;-74
2022/04/28 11:07:59;;;;;;;9.45;2.83;;;22.00;63.30;;;;;;4998976;28;20132;-73
2022/04/28 11:10:27;;;;;;;8.98;2.70;;;22.00;63.20;;;;;;5009754;28;20378;-71
2022/04/28 11:12:54;;;;;;;9.90;2.42;;;22.00;63.00;;;;;;5008036;28;20010;-71
2022/04/28 11:15:23;;;;;;;8.35;3.13;;;22.10;63.00;;;;;;5009381;28;20061;-73
2022/04/28 11:17:49;;;;;;;5.63;1.95;;;22.10;63.00;;;;;;5008478;28;20103;-72
2022/04/28 11:20:21;;;;;;;11.63;2.53;;;22.10;62.80;;;;;;5007656;28;20042;-73
2022/04/28 11:22:52;;;;;;;6.63;2.72;;;22.20;62.60;;;;;;5007591;28;20022;-69
2022/04/28 11:25:20;;;;;;;9.98;2.40;;;22.20;62.50;;;;;;5007735;28;20014;-69
2022/04/28 11:27:49;;;;;;;6.07;2.53;;;22.30;62.40;;;;;;5009157;28;20018;-73
2022/04/28 11:30:25;;;;;;;5.25;1.73;;;22.30;62.30;;;;;;5007038;28;20462;-69
2022/04/28 11:32:58;;;;;;;7.15;2.58;;;22.40;62.50;;;;;;5009311;28;20473;-74
2022/04/28 11:35:35;;;;;;;10.20;3.03;;;22.40;62.50;;;;;;5008550;28;20034;-74
2022/04/28 11:38:02;;;;;;;8.63;2.33;;;22.40;62.50;;;;;;5006343;28;20105;-70
2022/04/28 11:40:31;;;;;;;8.63;1.80;;;22.50;62.50;;;;;;5008840;28;20022;-70
2022/04/28 11:42:59;;;;;;;7.80;2.40;;;22.50;62.40;;;;;;5007425;28;20057;-72
2022/04/28 11:45:29;;;;;;;10.25;2.30;;;22.50;62.40;;;;;;5008070;28;20072;-73
2022/04/28 11:47:58;;;;;;;8.70;2.08;;;22.60;62.60;;;;;;5008337;28;20038;-74
2022/04/28 11:50:32;;;;;;;6.57;2.20;;;22.60;62.70;;;;;;5009083;28;20097;-72
2022/04/28 11:53:07;;;;;;;13.73;3.20;;;22.70;62.90;;;;;;5006585;28;20044;-71
2022/04/28 11:55:36;;;;;;;;;;;22.70;63.10;;;;;;5008084;28;20038;-75
2022/04/28 11:58:04;;;;;;;10.20;2.63;;;22.70;62.90;;;;;;5008445;28;20330;-75
2022/04/28 12:00:37;;;;;;;7.57;1.85;;;22.70;63.00;;;;;;5007190;28;20022;-74
2022/04/28 12:03:04;;;;;;;11.73;2.30;;;22.80;62.90;;;;;;5008081;28;20101;-71
2022/04/28 12:05:32;;;;;;;14.75;2.25;;;22.80;62.50;;;;;;5007738;28;20080;-73
2022/04/28 12:07:59;;;;;;;12.90;2.58;;;22.90;62.60;;;;;;5007642;28;20500;-72
2022/04/28 12:16:00;;;;;;;12.70;2.92;;;22.90;62.50;;;;;;5007572;28;20124;-73
2022/04/28 12:21:23;;;;;;;9.20;2.15;;;23.00;62.10;;;;;;5005650;28;20056;-68
2022/04/28 12:23:55;;;;;;;9.82;3.30;;;23.00;62.10;;;;;;5008358;28;20477;-72
2022/04/28 12:26:24;;;;;;;7.88;2.03;;;23.10;62.10;;;;;;5006392;28;20025;-70
2022/04/28 12:28:51;;;;;;;11.73;3.78;;;23.10;62.10;;;;;;5007839;28;20021;-72
2022/04/28 12:31:30;;;;;;;8.18;2.78;;;23.10;62.30;;;;;;5007008;28;20026;-69
2022/04/28 12:33:57;;;;;;;8.68;2.80;;;23.10;62.10;;;;;;5007156;28;20473;-74
2022/04/28 12:36:24;;;;;;;8.52;2.33;;;23.20;61.90;;;;;;5007551;28;20021;-72
2022/04/28 12:38:55;;;;;;;7.70;1.90;;;23.20;61.60;;;;;;5006694;28;20157;-70
2022/04/28 12:41:24;;;;;;;6.70;2.42;;;23.20;61.30;;;;;;5007856;28;20033;-72
2022/04/28 12:43:55;;;;;;;7.00;3.00;;;23.20;61.10;;;;;;5006253;28;20104;-69
2022/04/28 12:46:44;;;;;;;12.18;2.22;;;23.20;61.00;;;;;;5007614;28;20010;-73
2022/04/28 12:49:13;;;;;;;9.50;2.47;;;23.20;61.00;;;;;;5005499;28;21339;-73
2022/04/28 12:51:47;;;;;;;7.60;2.60;;;23.20;60.40;;;;;;5007168;28;20072;-72
2022/04/28 12:54:15;;;;;;;4.45;1.70;;;23.30;60.30;;;;;;5008534;28;20421;-70
2022/04/28 12:56:43;;;;;;;8.73;2.33;;;23.30;59.90;;;;;;5006046;28;20097;-69
2022/04/28 12:59:13;;;;;;;8.85;1.98;;;23.30;59.80;;;;;;5007539;28;20113;-72
2022/04/28 13:01:42;;;;;;;9.95;2.50;;;23.30;59.80;;;;;;5006720;28;20022;-70
2022/04/28 13:04:12;;;;;;;8.57;1.92;;;23.40;59.90;;;;;;5005752;28;20022;-72
2022/04/28 13:06:41;;;;;;;9.20;2.40;;;23.40;59.90;;;;;;5006884;28;20029;-74
2022/04/28 13:09:08;;;;;;;5.70;2.28;;;23.40;59.80;;;;;;5003511;28;20032;-73
2022/04/28 13:11:37;;;;;;;17.00;3.38;;;23.40;59.80;;;;;;5007247;28;20018;-72
2022/04/28 13:14:05;;;;;;;15.27;2.53;;;23.40;59.80;;;;;;5004307;28;20113;-69
2022/04/28 13:16:32;;;;;;;9.43;2.90;;;23.40;60.20;;;;;;5007489;28;20065;-71
2022/04/28 13:18:59;;;;;;;8.48;2.40;;;23.30;60.40;;;;;;5007036;28;20044;-74
2022/04/28 13:21:25;;;;;;;10.40;2.70;;;23.40;60.40;;;;;;5006045;28;20048;-73
2022/04/28 13:23:52;;;;;;;8.50;2.28;;;23.30;60.30;;;;;;4989085;28;20112;-67
2022/04/28 13:26:21;;;;;;;7.20;2.45;;;23.30;60.30;;;;;;5006268;28;20093;-73
2022/04/28 13:28:50;;;;;;;6.22;1.98;;;23.40;60.40;;;;;;5007865;28;20478;-68
2022/04/28 13:31:17;;;;;;;13.75;1.95;;;23.40;60.50;;;;;;5006091;28;20018;-68
2022/04/28 13:33:44;;;;;;;13.80;4.03;;;23.30;60.70;;;;;;5007126;28;20018;-71
2022/04/28 13:36:10;;;;;;;8.18;2.00;;;23.30;60.80;;;;;;5005854;28;20141;-73
2022/04/28 13:38:37;;;;;;;13.82;2.67;;;23.30;61.10;;;;;;5007139;28;20046;-69
2022/04/28 13:41:05;;;;;;;8.27;2.20;;;23.30;61.30;;;;;;5006985;28;20010;-68
2022/04/28 13:43:32;;;;;;;7.80;2.20;;;23.30;61.30;;;;;;5006258;28;20397;-68
2022/04/28 13:46:10;;;;;;;9.77;2.05;;;23.30;61.30;;;;;;5007106;28;20018;-72
2022/04/28 13:48:36;;;;;;;10.35;2.00;;;23.30;61.20;;;;;;5005575;28;20034;-70
2022/04/28 13:51:05;;;;;;;10.27;2.20;;;23.30;61.20;;;;;;5007292;28;20573;-67
2022/04/28 13:53:33;;;;;;;9.88;2.20;;;23.20;61.40;;;;;;5005810;28;20021;-71
2022/04/28 13:56:01;;;;;;;11.70;2.60;;;23.20;61.70;;;;;;5006919;28;20371;-71